sensor_id;sensor_type;location;lat;lon;timestamp;P1;durP1;ratioP1;P2;durP2;ratioP2
31348;SDS011;17976;48.480;11.946;2023-05-07T06:59:07;7.63;;;5.40;;
31348;SDS011;17976;48.480;11.946;2023-05-07T07:01:33;6.88;;;5.63;;
31348;SDS011;17976;48.480;11.946;2023-05-07T07:03:59;7.45;;;5.20;;
31348;SDS011;17976;48.480;11.946;2023-05-07T07:06:25;7.25;;;4.90;;
31348;SDS011;17976;48.480;11.946;2023-05-07T07:08:51;6.68;;;4.97;;
31348;SDS011;17976;48.480;11.946;2023-05-07T07:11:18;9.05;;;5.20;;
31348;SDS011;17976;48.480;11.946;2023-05-07T07:13:43;6.03;;;5.20;;
31348;SDS011;17976;48.480;11.946;2023-05-07T07:16:10;8.88;;;5.13;;
31348;SDS011;17976;48.480;11.946;2023-05-07T07:18:36;10.82;;;4.70;;
31348;SDS011;17976;48.480;11.946;2023-05-07T07:21:02;6.90;;;4.28;;
31348;SDS011;17976;48.480;11.946;2023-05-07T07:23:27;5.65;;;4.55;;
31348;SDS011;17976;48.480;11.946;2023-05-07T07:25:53;7.25;;;4.95;;
31348;SDS011;17976;48.480;11.946;2023-05-07T07:28:20;9.63;;;5.10;;
31348;SDS011;17976;48.480;11.946;2023-05-07T07:30:46;9.13;;;4.63;;
31348;SDS011;17976;48.480;11.946;2023-05-07T07:33:12;8.10;;;4.72;;
31348;SDS011;17976;48.480;11.946;2023-05-07T07:35:39;8.23;;;4.07;;
31348;SDS011;17976;48.480;11.946;2023-05-07T07:38:05;7.25;;;3.88;;
31348;SDS011;17976;48.480;11.946;2023-05-07T07:40:31;10.45;;;4.30;;
31348;SDS011;17976;48.480;11.946;2023-05-07T07:42:57;6.40;;;4.68;;
31348;SDS011;17976;48.480;11.946;2023-05-07T07:45:23;7.75;;;4.65;;
31348;SDS011;17976;48.480;11.946;2023-05-07T07:47:49;6.78;;;4.72;;
31348;SDS011;17976;48.480;11.946;2023-05-07T07:50:15;6.50;;;4.00;;
31348;SDS011;17976;48.480;11.946;2023-05-07T07:52:41;5.85;;;3.97;;
31348;SDS011;17976;48.480;11.946;2023-05-07T07:55:07;6.05;;;4.28;;
31348;SDS011;17976;48.480;11.946;2023-05-07T07:57:33;5.95;;;3.85;;
31348;SDS011;17976;48.480;11.946;2023-05-07T08:00:00;7.35;;;4.00;;
31348;SDS011;17976;48.480;11.946;2023-05-07T08:02:25;6.60;;;4.40;;
31348;SDS011;17976;48.480;11.946;2023-05-07T08:04:51;5.65;;;4.00;;
31348;SDS011;17976;48.480;11.946;2023-05-07T08:07:17;5.18;;;3.60;;
31348;SDS011;17976;48.480;11.946;2023-05-07T08:09:45;4.65;;;4.10;;
31348;SDS011;17976;48.480;11.946;2023-05-07T08:12:12;5.63;;;4.10;;
31348;SDS011;17976;48.480;11.946;2023-05-07T08:14:38;5.00;;;3.80;;
31348;SDS011;17976;48.480;11.946;2023-05-07T08:17:04;6.68;;;4.68;;
31348;SDS011;17976;48.480;11.946;2023-05-07T08:19:30;4.82;;;4.30;;
31348;SDS011;17976;48.480;11.946;2023-05-07T08:21:56;7.55;;;4.13;;
31348;SDS011;17976;48.480;11.946;2023-05-07T08:24:22;5.53;;;4.65;;
31348;SDS011;17976;48.480;11.946;2023-05-07T08:26:48;4.80;;;4.27;;
31348;SDS011;17976;48.480;11.946;2023-05-07T08:29:14;5.68;;;4.32;;
31348;SDS011;17976;48.480;11.946;2023-05-07T08:31:40;6.20;;;4.40;;
31348;SDS011;17976;48.480;11.946;2023-05-07T08:34:06;8.23;;;4.50;;
31348;SDS011;17976;48.480;11.946;2023-05-07T08:36:32;5.82;;;4.00;;
31348;SDS011;17976;48.480;11.946;2023-05-07T08:38:59;6.80;;;4.53;;
31348;SDS011;17976;48.480;11.946;2023-05-07T08:41:25;7.35;;;4.53;;
31348;SDS011;17976;48.480;11.946;2023-05-07T08:43:51;5.80;;;4.60;;
31348;SDS011;17976;48.480;11.946;2023-05-07T08:46:18;6.38;;;5.00;;
31348;SDS011;17976;48.480;11.946;2023-05-07T08:48:45;5.65;;;4.68;;
31348;SDS011;17976;48.480;11.946;2023-05-07T08:51:15;11.75;;;5.47;;
31348;SDS011;17976;48.480;11.946;2023-05-07T08:53:41;8.80;;;5.45;;
31348;SDS011;17976;48.480;11.946;2023-05-07T08:56:10;7.47;;;5.50;;
31348;SDS011;17976;48.480;11.946;2023-05-07T08:58:37;13.75;;;6.00;;
31348;SDS011;17976;48.480;11.946;2023-05-07T09:01:09;8.35;;;5.53;;
31348;SDS011;17976;48.480;11.946;2023-05-07T09:03:37;7.07;;;5.57;;
31348;SDS011;17976;48.480;11.946;2023-05-07T09:06:03;7.30;;;5.90;;
31348;SDS011;17976;48.480;11.946;2023-05-07T09:08:29;6.82;;;5.35;;
31348;SDS011;17976;48.480;11.946;2023-05-07T09:10:55;7.68;;;5.85;;
31348;SDS011;17976;48.480;11.946;2023-05-07T09:13:21;8.20;;;5.93;;
31348;SDS011;17976;48.480;11.946;2023-05-07T09:15:47;8.15;;;5.53;;
31348;SDS011;17976;48.480;11.946;2023-05-07T09:18:13;6.35;;;5.20;;
31348;SDS011;17976;48.480;11.946;2023-05-07T09:20:40;7.72;;;6.03;;
31348;SDS011;17976;48.480;11.946;2023-05-07T09:23:06;6.47;;;5.20;;
31348;SDS011;17976;48.480;11.946;2023-05-07T09:25:33;8.13;;;5.90;;
31348;SDS011;17976;48.480;11.946;2023-05-07T09:28:00;8.15;;;6.30;;
31348;SDS011;17976;48.480;11.946;2023-05-07T09:30:32;11.80;;;5.57;;
31348;SDS011;17976;48.480;11.946;2023-05-07T09:32:58;5.78;;;4.75;;
31348;SDS011;17976;48.480;11.946;2023-05-07T09:35:25;5.85;;;4.53;;
31348;SDS011;17976;48.480;11.946;2023-05-07T09:37:57;9.30;;;6.20;;
31348;SDS011;17976;48.480;11.946;2023-05-07T09:40:27;6.70;;;5.15;;
31348;SDS011;17976;48.480;11.946;2023-05-07T09:42:54;7.10;;;5.40;;
31348;SDS011;17976;48.480;11.946;2023-05-07T09:45:26;6.97;;;5.28;;
31348;SDS011;17976;48.480;11.946;2023-05-07T09:47:56;9.27;;;4.38;;
31348;SDS011;17976;48.480;11.946;2023-05-07T09:50:26;6.70;;;4.60;;
31348;SDS011;17976;48.480;11.946;2023-05-07T09:52:54;6.22;;;3.72;;
31348;SDS011;17976;48.480;11.946;2023-05-07T09:55:20;6.05;;;3.42;;
31348;SDS011;17976;48.480;11.946;2023-05-07T09:57:47;7.75;;;3.47;;
31348;SDS011;17976;48.480;11.946;2023-05-07T10:00:14;5.55;;;3.60;;
31348;SDS011;17976;48.480;11.946;2023-05-07T10:02:40;5.97;;;3.20;;
31348;SDS011;17976;48.480;11.946;2023-05-07T10:05:12;6.18;;;3.90;;
31348;SDS011;17976;48.480;11.946;2023-05-07T10:07:38;7.97;;;3.42;;
31348;SDS011;17976;48.480;11.946;2023-05-07T10:10:04;5.03;;;3.38;;
31348;SDS011;17976;48.480;11.946;2023-05-07T10:12:30;5.35;;;3.80;;
31348;SDS011;17976;48.480;11.946;2023-05-07T10:15:02;9.05;;;2.40;;
31348;SDS011;17976;48.480;11.946;2023-05-07T10:17:29;4.97;;;3.33;;
31348;SDS011;17976;48.480;11.946;2023-05-07T10:19:55;4.22;;;3.13;;
31348;SDS011;17976;48.480;11.946;2023-05-07T10:22:21;3.35;;;2.50;;
31348;SDS011;17976;48.480;11.946;2023-05-07T10:24:48;4.22;;;3.20;;
31348;SDS011;17976;48.480;11.946;2023-05-07T10:27:14;6.80;;;4.00;;
31348;SDS011;17976;48.480;11.946;2023-05-07T10:29:54;4.07;;;2.40;;
31348;SDS011;17976;48.480;11.946;2023-05-07T10:34:48;2.83;;;1.88;;
31348;SDS011;17976;48.480;11.946;2023-05-07T10:37:16;5.20;;;2.30;;
31348;SDS011;17976;48.480;11.946;2023-05-07T10:39:42;3.80;;;2.78;;
31348;SDS011;17976;48.480;11.946;2023-05-07T10:42:11;3.97;;;2.20;;
31348;SDS011;17976;48.480;11.946;2023-05-07T10:44:38;8.02;;;2.50;;
31348;SDS011;17976;48.480;11.946;2023-05-07T10:47:05;3.08;;;2.28;;
31348;SDS011;17976;48.480;11.946;2023-05-07T10:49:33;4.05;;;1.77;;
31348;SDS011;17976;48.480;11.946;2023-05-07T10:52:18;3.83;;;1.60;;
31348;SDS011;17976;48.480;11.946;2023-05-07T10:54:45;3.95;;;2.03;;
31348;SDS011;17976;48.480;11.946;2023-05-07T10:59:55;2.33;;;1.58;;
31348;SDS011;17976;48.480;11.946;2023-05-07T11:02:21;2.60;;;1.55;;
31348;SDS011;17976;48.480;11.946;2023-05-07T11:07:32;4.85;;;1.60;;
31348;SDS011;17976;48.480;11.946;2023-05-07T11:09:58;4.20;;;1.40;;
31348;SDS011;17976;48.480;11.946;2023-05-07T11:15:04;1.35;;;1.00;;
31348;SDS011;17976;48.480;11.946;2023-05-07T11:17:31;1.20;;;0.98;;
31348;SDS011;17976;48.480;11.946;2023-05-07T11:19:59;1.70;;;1.00;;
31348;SDS011;17976;48.480;11.946;2023-05-07T11:24:54;2.75;;;1.73;;
31348;SDS011;17976;48.480;11.946;2023-05-07T11:27:23;2.70;;;1.55;;
31348;SDS011;17976;48.480;11.946;2023-05-07T11:29:49;3.42;;;1.40;;
31348;SDS011;17976;48.480;11.946;2023-05-07T11:32:21;2.47;;;1.40;;
31348;SDS011;17976;48.480;11.946;2023-05-07T11:34:50;4.10;;;2.20;;
31348;SDS011;17976;48.480;11.946;2023-05-07T11:37:17;2.00;;;1.38;;
31348;SDS011;17976;48.480;11.946;2023-05-07T11:39:43;2.72;;;1.30;;
31348;SDS011;17976;48.480;11.946;2023-05-07T11:42:25;1.98;;;1.10;;
31348;SDS011;17976;48.480;11.946;2023-05-07T11:44:51;1.38;;;0.90;;
31348;SDS011;17976;48.480;11.946;2023-05-07T11:47:18;3.58;;;1.15;;
31348;SDS011;17976;48.480;11.946;2023-05-07T11:49:46;1.52;;;1.15;;
31348;SDS011;17976;48.480;11.946;2023-05-07T11:52:12;4.07;;;1.25;;
31348;SDS011;17976;48.480;11.946;2023-05-07T11:54:38;3.83;;;1.23;;
31348;SDS011;17976;48.480;11.946;2023-05-07T11:57:04;2.45;;;1.23;;
31348;SDS011;17976;48.480;11.946;2023-05-07T11:59:41;1.30;;;1.20;;
31348;SDS011;17976;48.480;11.946;2023-05-07T12:02:09;1.58;;;1.25;;
31348;SDS011;17976;48.480;11.946;2023-05-07T12:04:35;1.75;;;1.00;;
31348;SDS011;17976;48.480;11.946;2023-05-07T12:07:01;1.98;;;1.10;;
31348;SDS011;17976;48.480;11.946;2023-05-07T12:09:27;4.93;;;1.48;;
31348;SDS011;17976;48.480;11.946;2023-05-07T12:11:53;3.30;;;1.35;;
31348;SDS011;17976;48.480;11.946;2023-05-07T12:14:21;1.23;;;0.80;;
31348;SDS011;17976;48.480;11.946;2023-05-07T12:16:46;1.48;;;1.20;;
31348;SDS011;17976;48.480;11.946;2023-05-07T12:19:13;3.42;;;1.10;;
31348;SDS011;17976;48.480;11.946;2023-05-07T12:21:39;3.28;;;1.40;;
31348;SDS011;17976;48.480;11.946;2023-05-07T12:24:05;1.63;;;1.00;;
31348;SDS011;17976;48.480;11.946;2023-05-07T12:26:31;2.00;;;1.10;;
31348;SDS011;17976;48.480;11.946;2023-05-07T12:28:57;2.55;;;1.33;;
31348;SDS011;17976;48.480;11.946;2023-05-07T12:31:25;1.38;;;1.13;;
31348;SDS011;17976;48.480;11.946;2023-05-07T12:33:57;4.82;;;3.75;;
31348;SDS011;17976;48.480;11.946;2023-05-07T12:36:26;1.85;;;1.25;;
31348;SDS011;17976;48.480;11.946;2023-05-07T12:39:01;3.92;;;1.00;;
31348;SDS011;17976;48.480;11.946;2023-05-07T12:41:28;1.45;;;0.98;;
31348;SDS011;17976;48.480;11.946;2023-05-07T12:43:56;2.13;;;1.13;;
31348;SDS011;17976;48.480;11.946;2023-05-07T12:46:22;1.20;;;1.00;;
31348;SDS011;17976;48.480;11.946;2023-05-07T12:48:48;3.42;;;1.50;;
31348;SDS011;17976;48.480;11.946;2023-05-07T12:51:15;2.10;;;0.90;;
31348;SDS011;17976;48.480;11.946;2023-05-07T12:53:41;2.55;;;1.17;;
31348;SDS011;17976;48.480;11.946;2023-05-07T12:56:07;1.42;;;1.10;;
31348;SDS011;17976;48.480;11.946;2023-05-07T12:58:34;2.53;;;0.98;;
31348;SDS011;17976;48.480;11.946;2023-05-07T13:01:04;2.28;;;1.20;;
31348;SDS011;17976;48.480;11.946;2023-05-07T13:03:31;3.90;;;1.40;;
31348;SDS011;17976;48.480;11.946;2023-05-07T13:06:01;2.47;;;1.15;;
31348;SDS011;17976;48.480;11.946;2023-05-07T13:08:31;3.80;;;1.10;;
31348;SDS011;17976;48.480;11.946;2023-05-07T13:11:01;3.92;;;0.90;;
31348;SDS011;17976;48.480;11.946;2023-05-07T13:13:29;2.83;;;0.98;;
31348;SDS011;17976;48.480;11.946;2023-05-07T13:15:55;2.75;;;1.10;;
31348;SDS011;17976;48.480;11.946;2023-05-07T13:18:21;1.45;;;1.20;;
31348;SDS011;17976;48.480;11.946;2023-05-07T13:20:47;1.65;;;1.02;;
31348;SDS011;17976;48.480;11.946;2023-05-07T13:23:13;1.38;;;0.90;;
31348;SDS011;17976;48.480;11.946;2023-05-07T13:25:39;1.63;;;1.20;;
31348;SDS011;17976;48.480;11.946;2023-05-07T13:28:05;2.13;;;0.90;;
31348;SDS011;17976;48.480;11.946;2023-05-07T13:30:31;1.77;;;1.00;;
31348;SDS011;17976;48.480;11.946;2023-05-07T13:32:57;2.85;;;1.13;;
31348;SDS011;17976;48.480;11.946;2023-05-07T13:35:22;1.85;;;0.98;;
31348;SDS011;17976;48.480;11.946;2023-05-07T13:37:48;6.22;;;1.20;;
31348;SDS011;17976;48.480;11.946;2023-05-07T13:40:14;2.78;;;0.82;;
31348;SDS011;17976;48.480;11.946;2023-05-07T13:42:40;1.45;;;1.20;;
31348;SDS011;17976;48.480;11.946;2023-05-07T13:45:07;1.38;;;1.08;;
31348;SDS011;17976;48.480;11.946;2023-05-07T13:47:33;3.20;;;1.30;;
31348;SDS011;17976;48.480;11.946;2023-05-07T13:49:59;1.83;;;1.10;;
31348;SDS011;17976;48.480;11.946;2023-05-07T13:52:25;1.48;;;1.30;;
31348;SDS011;17976;48.480;11.946;2023-05-07T13:54:51;1.40;;;1.00;;
31348;SDS011;17976;48.480;11.946;2023-05-07T13:57:17;0.98;;;0.88;;
31348;SDS011;17976;48.480;11.946;2023-05-07T13:59:43;2.60;;;1.20;;
31348;SDS011;17976;48.480;11.946;2023-05-07T14:02:09;2.08;;;1.20;;
31348;SDS011;17976;48.480;11.946;2023-05-07T14:04:35;2.20;;;1.00;;
31348;SDS011;17976;48.480;11.946;2023-05-07T14:07:01;1.70;;;1.20;;
31348;SDS011;17976;48.480;11.946;2023-05-07T14:09:27;1.10;;;1.00;;
31348;SDS011;17976;48.480;11.946;2023-05-07T14:11:53;1.52;;;1.10;;
31348;SDS011;17976;48.480;11.946;2023-05-07T14:14:19;2.83;;;1.00;;
31348;SDS011;17976;48.480;11.946;2023-05-07T14:16:45;3.40;;;1.20;;
31348;SDS011;17976;48.480;11.946;2023-05-07T14:19:11;3.88;;;0.95;;
31348;SDS011;17976;48.480;11.946;2023-05-07T14:21:37;3.40;;;1.38;;
31348;SDS011;17976;48.480;11.946;2023-05-07T14:24:05;2.55;;;1.45;;
31348;SDS011;17976;48.480;11.946;2023-05-07T14:26:32;1.13;;;1.02;;
31348;SDS011;17976;48.480;11.946;2023-05-07T14:28:58;1.90;;;1.08;;
31348;SDS011;17976;48.480;11.946;2023-05-07T14:31:24;1.50;;;1.00;;
31348;SDS011;17976;48.480;11.946;2023-05-07T14:33:50;1.20;;;1.10;;
31348;SDS011;17976;48.480;11.946;2023-05-07T14:36:17;1.65;;;1.10;;
31348;SDS011;17976;48.480;11.946;2023-05-07T14:38:45;1.25;;;0.70;;
31348;SDS011;17976;48.480;11.946;2023-05-07T14:41:11;3.55;;;1.10;;
31348;SDS011;17976;48.480;11.946;2023-05-07T14:43:37;1.85;;;1.23;;
31348;SDS011;17976;48.480;11.946;2023-05-07T14:46:03;2.40;;;1.40;;
31348;SDS011;17976;48.480;11.946;2023-05-07T14:48:29;2.45;;;0.98;;
31348;SDS011;17976;48.480;11.946;2023-05-07T14:50:55;1.40;;;1.00;;
31348;SDS011;17976;48.480;11.946;2023-05-07T14:53:21;2.60;;;1.10;;
31348;SDS011;17976;48.480;11.946;2023-05-07T14:55:47;3.00;;;1.00;;
31348;SDS011;17976;48.480;11.946;2023-05-07T14:58:13;2.03;;;1.10;;
31348;SDS011;17976;48.480;11.946;2023-05-07T15:00:39;1.83;;;1.15;;
31348;SDS011;17976;48.480;11.946;2023-05-07T15:03:06;1.80;;;1.10;;
31348;SDS011;17976;48.480;11.946;2023-05-07T15:05:33;3.45;;;1.23;;
31348;SDS011;17976;48.480;11.946;2023-05-07T15:07:59;1.38;;;0.90;;
31348;SDS011;17976;48.480;11.946;2023-05-07T15:10:25;1.98;;;1.17;;
31348;SDS011;17976;48.480;11.946;2023-05-07T15:12:51;4.25;;;1.40;;
31348;SDS011;17976;48.480;11.946;2023-05-07T15:15:17;1.10;;;0.80;;
31348;SDS011;17976;48.480;11.946;2023-05-07T15:17:43;2.15;;;1.40;;
31348;SDS011;17976;48.480;11.946;2023-05-07T15:20:09;2.38;;;1.00;;
31348;SDS011;17976;48.480;11.946;2023-05-07T15:22:35;1.65;;;0.95;;
31348;SDS011;17976;48.480;11.946;2023-05-07T15:25:06;2.15;;;1.10;;
31348;SDS011;17976;48.480;11.946;2023-05-07T15:27:32;1.58;;;0.93;;
31348;SDS011;17976;48.480;11.946;2023-05-07T15:29:58;1.65;;;1.13;;
31348;SDS011;17976;48.480;11.946;2023-05-07T15:32:24;4.60;;;1.30;;
31348;SDS011;17976;48.480;11.946;2023-05-07T15:34:50;1.17;;;0.90;;
31348;SDS011;17976;48.480;11.946;2023-05-07T15:37:16;2.45;;;1.65;;
31348;SDS011;17976;48.480;11.946;2023-05-07T15:39:42;1.30;;;0.93;;
31348;SDS011;17976;48.480;11.946;2023-05-07T15:42:08;2.35;;;1.30;;
31348;SDS011;17976;48.480;11.946;2023-05-07T15:44:34;1.65;;;1.05;;
31348;SDS011;17976;48.480;11.946;2023-05-07T15:47:00;3.38;;;0.90;;
31348;SDS011;17976;48.480;11.946;2023-05-07T15:49:26;2.38;;;1.10;;
31348;SDS011;17976;48.480;11.946;2023-05-07T15:51:52;3.80;;;1.10;;
31348;SDS011;17976;48.480;11.946;2023-05-07T15:54:19;1.70;;;1.10;;
31348;SDS011;17976;48.480;11.946;2023-05-07T15:56:46;6.65;;;1.20;;
31348;SDS011;17976;48.480;11.946;2023-05-07T15:59:12;1.83;;;1.27;;
31348;SDS011;17976;48.480;11.946;2023-05-07T16:01:40;1.90;;;1.10;;
31348;SDS011;17976;48.480;11.946;2023-05-07T16:04:07;6.72;;;1.27;;
31348;SDS011;17976;48.480;11.946;2023-05-07T16:06:33;1.63;;;1.23;;
31348;SDS011;17976;48.480;11.946;2023-05-07T16:08:59;2.85;;;1.23;;
31348;SDS011;17976;48.480;11.946;2023-05-07T16:11:25;2.35;;;1.10;;
31348;SDS011;17976;48.480;11.946;2023-05-07T16:13:54;2.55;;;1.10;;
31348;SDS011;17976;48.480;11.946;2023-05-07T16:16:20;2.33;;;1.23;;
31348;SDS011;17976;48.480;11.946;2023-05-07T16:18:46;2.50;;;1.10;;
31348;SDS011;17976;48.480;11.946;2023-05-07T16:21:12;1.63;;;0.85;;
31348;SDS011;17976;48.480;11.946;2023-05-07T16:23:41;1.98;;;1.00;;
31348;SDS011;17976;48.480;11.946;2023-05-07T16:26:07;1.80;;;1.00;;
31348;SDS011;17976;48.480;11.946;2023-05-07T16:28:33;3.60;;;1.30;;
31348;SDS011;17976;48.480;11.946;2023-05-07T16:30:59;1.55;;;1.13;;
31348;SDS011;17976;48.480;11.946;2023-05-07T16:33:25;2.60;;;1.13;;
31348;SDS011;17976;48.480;11.946;2023-05-07T16:35:52;3.17;;;1.20;;
31348;SDS011;17976;48.480;11.946;2023-05-07T16:38:18;2.17;;;1.27;;
31348;SDS011;17976;48.480;11.946;2023-05-07T16:40:44;3.13;;;1.33;;
31348;SDS011;17976;48.480;11.946;2023-05-07T16:43:10;3.05;;;1.58;;
31348;SDS011;17976;48.480;11.946;2023-05-07T16:45:36;3.50;;;1.70;;
31348;SDS011;17976;48.480;11.946;2023-05-07T16:48:02;5.00;;;1.83;;
31348;SDS011;17976;48.480;11.946;2023-05-07T16:50:29;3.05;;;2.25;;
31348;SDS011;17976;48.480;11.946;2023-05-07T16:52:55;4.43;;;2.10;;
31348;SDS011;17976;48.480;11.946;2023-05-07T16:55:21;5.15;;;2.53;;
31348;SDS011;17976;48.480;11.946;2023-05-07T16:57:47;2.88;;;2.47;;
31348;SDS011;17976;48.480;11.946;2023-05-07T17:00:13;2.95;;;2.33;;
31348;SDS011;17976;48.480;11.946;2023-05-07T17:02:39;5.18;;;2.72;;
31348;SDS011;17976;48.480;11.946;2023-05-07T17:05:05;3.35;;;2.63;;
31348;SDS011;17976;48.480;11.946;2023-05-07T17:07:31;6.50;;;2.65;;
31348;SDS011;17976;48.480;11.946;2023-05-07T17:09:57;3.05;;;2.47;;
31348;SDS011;17976;48.480;11.946;2023-05-07T17:12:23;5.10;;;2.85;;
31348;SDS011;17976;48.480;11.946;2023-05-07T17:14:50;4.53;;;2.47;;
31348;SDS011;17976;48.480;11.946;2023-05-07T17:17:16;4.38;;;2.58;;
31348;SDS011;17976;48.480;11.946;2023-05-07T17:19:42;3.72;;;2.72;;
31348;SDS011;17976;48.480;11.946;2023-05-07T17:22:08;4.88;;;2.55;;
31348;SDS011;17976;48.480;11.946;2023-05-07T17:24:34;4.13;;;2.28;;
31348;SDS011;17976;48.480;11.946;2023-05-07T17:27:00;4.65;;;2.47;;
31348;SDS011;17976;48.480;11.946;2023-05-07T17:29:26;3.60;;;2.60;;
31348;SDS011;17976;48.480;11.946;2023-05-07T17:31:52;4.38;;;2.45;;
31348;SDS011;17976;48.480;11.946;2023-05-07T17:34:18;5.55;;;2.85;;
31348;SDS011;17976;48.480;11.946;2023-05-07T17:36:44;4.50;;;2.88;;
31348;SDS011;17976;48.480;11.946;2023-05-07T17:39:10;5.30;;;2.50;;
31348;SDS011;17976;48.480;11.946;2023-05-07T17:41:36;4.70;;;3.15;;
31348;SDS011;17976;48.480;11.946;2023-05-07T17:44:02;3.88;;;2.70;;
31348;SDS011;17976;48.480;11.946;2023-05-07T17:46:28;5.80;;;2.30;;
31348;SDS011;17976;48.480;11.946;2023-05-07T17:48:54;4.30;;;2.20;;
31348;SDS011;17976;48.480;11.946;2023-05-07T17:51:21;2.45;;;2.10;;
31348;SDS011;17976;48.480;11.946;2023-05-07T17:53:49;3.65;;;2.00;;
31348;SDS011;17976;48.480;11.946;2023-05-07T17:56:15;2.58;;;1.95;;
31348;SDS011;17976;48.480;11.946;2023-05-07T17:58:41;3.38;;;2.45;;
31348;SDS011;17976;48.480;11.946;2023-05-07T18:01:07;6.07;;;2.72;;
31348;SDS011;17976;48.480;11.946;2023-05-07T18:03:33;3.50;;;2.45;;
31348;SDS011;17976;48.480;11.946;2023-05-07T18:06:00;3.28;;;2.42;;
31348;SDS011;17976;48.480;11.946;2023-05-07T18:08:26;4.55;;;2.53;;
31348;SDS011;17976;48.480;11.946;2023-05-07T18:10:52;5.55;;;2.85;;
31348;SDS011;17976;48.480;11.946;2023-05-07T18:13:18;3.88;;;2.70;;
31348;SDS011;17976;48.480;11.946;2023-05-07T18:15:44;8.00;;;2.40;;
31348;SDS011;17976;48.480;11.946;2023-05-07T18:18:11;4.60;;;2.63;;
31348;SDS011;17976;48.480;11.946;2023-05-07T18:20:37;4.47;;;2.72;;
31348;SDS011;17976;48.480;11.946;2023-05-07T18:23:03;5.18;;;2.58;;
31348;SDS011;17976;48.480;11.946;2023-05-07T18:25:29;3.90;;;2.58;;
31348;SDS011;17976;48.480;11.946;2023-05-07T18:27:55;3.35;;;2.20;;
31348;SDS011;17976;48.480;11.946;2023-05-07T18:30:21;3.15;;;2.85;;
31348;SDS011;17976;48.480;11.946;2023-05-07T18:32:47;5.07;;;2.70;;
31348;SDS011;17976;48.480;11.946;2023-05-07T18:35:13;3.42;;;2.75;;
31348;SDS011;17976;48.480;11.946;2023-05-07T18:37:40;4.13;;;2.80;;
31348;SDS011;17976;48.480;11.946;2023-05-07T18:40:07;4.25;;;2.90;;
31348;SDS011;17976;48.480;11.946;2023-05-07T18:42:33;3.78;;;2.90;;
31348;SDS011;17976;48.480;11.946;2023-05-07T18:44:59;3.90;;;3.08;;
31348;SDS011;17976;48.480;11.946;2023-05-07T18:47:25;7.80;;;2.60;;
31348;SDS011;17976;48.480;11.946;2023-05-07T18:49:51;2.90;;;2.50;;
31348;SDS011;17976;48.480;11.946;2023-05-07T18:52:17;3.50;;;2.50;;
31348;SDS011;17976;48.480;11.946;2023-05-07T18:54:45;5.20;;;2.58;;
31348;SDS011;17976;48.480;11.946;2023-05-07T18:57:11;4.38;;;2.50;;
31348;SDS011;17976;48.480;11.946;2023-05-07T18:59:37;4.28;;;2.58;;
31348;SDS011;17976;48.480;11.946;2023-05-07T19:02:03;3.03;;;2.40;;
31348;SDS011;17976;48.480;11.946;2023-05-07T19:04:29;4.63;;;2.28;;
31348;SDS011;17976;48.480;11.946;2023-05-07T19:06:55;3.90;;;2.30;;
31348;SDS011;17976;48.480;11.946;2023-05-07T19:09:21;3.35;;;2.20;;
31348;SDS011;17976;48.480;11.946;2023-05-07T19:11:47;3.65;;;2.53;;
31348;SDS011;17976;48.480;11.946;2023-05-07T19:14:13;2.92;;;2.28;;
31348;SDS011;17976;48.480;11.946;2023-05-07T19:16:39;3.35;;;2.55;;
31348;SDS011;17976;48.480;11.946;2023-05-07T19:19:05;3.40;;;2.58;;
31348;SDS011;17976;48.480;11.946;2023-05-07T19:21:31;3.70;;;2.50;;
31348;SDS011;17976;48.480;11.946;2023-05-07T19:23:57;2.80;;;2.35;;
31348;SDS011;17976;48.480;11.946;2023-05-07T19:26:23;3.83;;;2.67;;
31348;SDS011;17976;48.480;11.946;2023-05-07T19:28:49;5.18;;;2.50;;
31348;SDS011;17976;48.480;11.946;2023-05-07T19:31:21;4.05;;;2.83;;
31348;SDS011;17976;48.480;11.946;2023-05-07T19:33:47;3.58;;;2.95;;
31348;SDS011;17976;48.480;11.946;2023-05-07T19:36:14;4.22;;;3.15;;
31348;SDS011;17976;48.480;11.946;2023-05-07T19:38:41;7.78;;;3.67;;
31348;SDS011;17976;48.480;11.946;2023-05-07T19:41:07;5.22;;;3.35;;
31348;SDS011;17976;48.480;11.946;2023-05-07T19:43:34;5.32;;;3.25;;
31348;SDS011;17976;48.480;11.946;2023-05-07T19:46:02;4.18;;;3.20;;
31348;SDS011;17976;48.480;11.946;2023-05-07T19:48:28;4.43;;;3.15;;
31348;SDS011;17976;48.480;11.946;2023-05-07T19:50:54;4.57;;;3.35;;
31348;SDS011;17976;48.480;11.946;2023-05-07T19:53:20;5.60;;;3.47;;
31348;SDS011;17976;48.480;11.946;2023-05-07T19:55:46;9.25;;;4.13;;
31348;SDS011;17976;48.480;11.946;2023-05-07T19:58:12;5.60;;;3.67;;
